createdAt,value
2017-12-27T00:00:36.990Z,1.40
2017-12-27T00:03:10.089Z,1.60
2017-12-27T00:05:43.111Z,1.60
2017-12-27T00:08:16.155Z,2.10
2017-12-27T00:10:49.248Z,1.63
2017-12-27T00:13:22.357Z,1.40
2017-12-27T00:15:55.394Z,1.90
2017-12-27T00:18:28.679Z,1.70
2017-12-27T00:21:01.641Z,2.43
2017-12-27T00:23:34.678Z,1.93
2017-12-27T00:26:07.620Z,1.93
2017-12-27T00:31:34.530Z,1.63
2017-12-27T00:34:02.000Z,1.00
2017-12-27T00:36:29.440Z,2.20
2017-12-27T00:38:58.134Z,2.07
2017-12-27T00:41:25.628Z,1.70
2017-12-27T00:43:53.073Z,2.00
2017-12-27T00:46:20.501Z,2.20
2017-12-27T00:48:48.771Z,1.93
2017-12-27T00:51:17.050Z,2.13
2017-12-27T00:53:44.537Z,1.80
2017-12-27T00:56:12.480Z,2.30
2017-12-27T00:58:40.657Z,2.00
2017-12-27T01:01:08.386Z,2.23
2017-12-27T01:03:35.880Z,2.60
2017-12-27T01:06:03.337Z,1.90
2017-12-27T01:08:30.843Z,2.20
2017-12-27T01:10:58.392Z,1.87
2017-12-27T01:13:25.851Z,2.87
2017-12-27T01:15:53.491Z,2.10
2017-12-27T01:18:21.153Z,2.30
2017-12-27T01:20:48.610Z,2.77
2017-12-27T01:23:16.064Z,1.70
2017-12-27T01:25:43.531Z,1.80
2017-12-27T01:28:10.971Z,2.10
2017-12-27T01:30:38.431Z,2.20
2017-12-27T01:33:05.871Z,1.73
2017-12-27T01:35:33.348Z,2.40
2017-12-27T01:38:00.818Z,2.20
2017-12-27T01:40:28.259Z,1.90
2017-12-27T01:42:55.757Z,1.73
2017-12-27T01:45:23.193Z,2.07
2017-12-27T01:47:50.659Z,2.03
2017-12-27T01:50:18.113Z,1.70
2017-12-27T01:52:45.639Z,1.67
2017-12-27T01:55:13.083Z,1.70
2017-12-27T01:57:40.555Z,2.43
2017-12-27T02:00:07.991Z,2.07
2017-12-27T02:02:35.455Z,2.50
2017-12-27T02:05:02.899Z,1.80
2017-12-27T02:07:30.468Z,1.70
2017-12-27T02:09:58.084Z,1.73
2017-12-27T02:12:25.546Z,1.40
2017-12-27T02:14:53.083Z,1.60
2017-12-27T02:17:20.548Z,2.07
2017-12-27T02:19:47.996Z,1.50
2017-12-27T02:22:15.557Z,1.70
2017-12-27T02:24:43.019Z,1.50
2017-12-27T02:27:10.496Z,1.10
2017-12-27T02:29:38.036Z,1.30
2017-12-27T02:32:05.539Z,1.50
2017-12-27T02:34:33.048Z,1.30
2017-12-27T02:37:00.523Z,2.03
2017-12-27T02:39:40.068Z,2.03
2017-12-27T02:42:07.596Z,1.40
2017-12-27T02:44:35.075Z,1.17
2017-12-27T02:47:02.515Z,1.00
2017-12-27T02:49:30.088Z,1.30
2017-12-27T02:51:57.527Z,1.43
2017-12-27T02:54:25.080Z,1.00
2017-12-27T02:56:52.537Z,1.10
2017-12-27T02:59:19.989Z,1.37
2017-12-27T03:01:47.427Z,1.13
2017-12-27T03:04:14.893Z,1.60
2017-12-27T03:06:42.353Z,1.80
2017-12-27T03:09:09.818Z,0.90
2017-12-27T03:11:37.282Z,1.00
2017-12-27T03:14:04.723Z,1.47
2017-12-27T03:16:32.199Z,0.80
2017-12-27T03:18:59.743Z,0.93
2017-12-27T03:21:27.217Z,1.23
2017-12-27T03:23:54.796Z,1.17
2017-12-27T03:26:22.263Z,0.90
2017-12-27T03:28:49.785Z,0.80
2017-12-27T03:31:17.289Z,1.03
2017-12-27T03:33:44.738Z,1.23
2017-12-27T03:36:12.287Z,1.33
2017-12-27T03:38:39.809Z,0.93
2017-12-27T03:41:07.368Z,1.23
2017-12-27T03:43:34.820Z,1.07
2017-12-27T03:46:02.288Z,0.87
2017-12-27T03:48:29.738Z,1.20
2017-12-27T03:50:57.217Z,1.23
2017-12-27T03:53:24.703Z,1.00
2017-12-27T03:55:52.143Z,1.47
2017-12-27T03:58:19.611Z,0.90
2017-12-27T04:00:47.127Z,1.13
2017-12-27T04:03:14.587Z,1.00
2017-12-27T04:05:42.022Z,1.40
2017-12-27T04:08:09.505Z,1.10
2017-12-27T04:10:36.952Z,1.00
2017-12-27T04:13:04.411Z,1.27
2017-12-27T04:15:31.842Z,1.07
2017-12-27T04:17:59.297Z,1.23
2017-12-27T04:20:26.736Z,1.13
2017-12-27T04:22:54.230Z,1.00
2017-12-27T04:25:21.667Z,1.33
2017-12-27T04:27:49.127Z,1.23
2017-12-27T04:30:16.567Z,1.53
2017-12-27T04:32:44.035Z,2.00
2017-12-27T04:35:11.477Z,1.53
2017-12-27T04:37:38.966Z,1.30
2017-12-27T04:40:06.405Z,1.20
2017-12-27T04:42:33.893Z,1.40
2017-12-27T04:45:01.351Z,1.47
2017-12-27T04:47:28.815Z,1.30
2017-12-27T04:49:56.259Z,2.00
2017-12-27T04:52:23.723Z,1.10
2017-12-27T04:54:51.167Z,2.50
2017-12-27T04:57:18.654Z,1.37
2017-12-27T04:59:46.122Z,1.80
2017-12-27T05:02:13.562Z,0.90
2017-12-27T05:04:41.035Z,1.07
2017-12-27T05:07:08.550Z,0.80
2017-12-27T05:09:36.016Z,1.40
2017-12-27T05:12:03.455Z,1.10
2017-12-27T05:14:30.931Z,1.17
2017-12-27T05:16:58.411Z,1.10
2017-12-27T05:19:25.891Z,0.87
2017-12-27T05:21:53.326Z,1.03
2017-12-27T05:24:20.843Z,1.20
2017-12-27T05:26:48.283Z,1.27
2017-12-27T05:29:15.779Z,1.40
2017-12-27T05:31:43.323Z,1.00
2017-12-27T05:34:10.782Z,1.20
2017-12-27T05:36:38.219Z,1.80
2017-12-27T05:39:05.699Z,1.53
2017-12-27T05:41:33.162Z,1.47
2017-12-27T05:44:00.627Z,1.47
2017-12-27T05:46:28.094Z,1.30
2017-12-27T05:48:55.545Z,1.50
2017-12-27T05:51:23.014Z,1.00
2017-12-27T05:53:50.540Z,1.77
2017-12-27T05:56:18.003Z,1.40
2017-12-27T05:58:45.442Z,2.10
2017-12-27T06:01:12.978Z,2.33
2017-12-27T06:03:40.472Z,2.03
2017-12-27T06:06:07.935Z,1.30
2017-12-27T06:08:35.499Z,1.70
2017-12-27T06:11:02.961Z,1.40
2017-12-27T06:13:30.394Z,1.40
2017-12-27T06:15:57.872Z,1.63
2017-12-27T06:18:25.306Z,1.90
2017-12-27T06:20:52.868Z,1.93
2017-12-27T06:23:20.347Z,2.43
2017-12-27T06:25:47.910Z,1.50
2017-12-27T06:28:15.377Z,1.97
2017-12-27T06:30:42.855Z,1.97
2017-12-27T06:33:10.323Z,1.57
2017-12-27T06:35:37.802Z,1.23
2017-12-27T06:38:05.263Z,1.73
2017-12-27T06:40:32.702Z,2.10
2017-12-27T06:43:00.240Z,1.20
2017-12-27T06:45:27.766Z,1.40
2017-12-27T06:47:55.243Z,1.33
2017-12-27T06:50:22.704Z,1.60
2017-12-27T06:52:50.256Z,1.10
2017-12-27T06:55:17.699Z,1.73
2017-12-27T06:57:45.167Z,1.50
2017-12-27T07:00:12.603Z,1.50
2017-12-27T07:02:40.130Z,1.50
2017-12-27T07:05:07.715Z,1.20
2017-12-27T07:07:35.151Z,2.00
2017-12-27T07:10:02.619Z,1.70
2017-12-27T07:12:30.160Z,2.30
2017-12-27T07:14:57.623Z,1.53
2017-12-27T07:17:25.074Z,2.17
2017-12-27T07:19:52.558Z,2.47
2017-12-27T07:22:20.000Z,1.70
2017-12-27T07:24:47.459Z,2.20
2017-12-27T07:27:14.907Z,1.87
2017-12-27T07:29:42.372Z,1.93
2017-12-27T07:32:09.815Z,2.00
2017-12-27T07:34:37.292Z,2.70
2017-12-27T07:37:04.744Z,2.00
2017-12-27T07:39:32.202Z,1.67
2017-12-27T07:41:59.659Z,2.40
2017-12-27T07:44:27.119Z,2.00
2017-12-27T07:46:54.558Z,2.40
2017-12-27T07:49:22.043Z,2.70
2017-12-27T07:51:49.496Z,2.03
2017-12-27T07:54:16.935Z,1.90
2017-12-27T07:56:44.476Z,1.83
2017-12-27T07:59:11.919Z,1.70
2017-12-27T08:01:39.378Z,2.20
2017-12-27T08:04:06.828Z,1.90
2017-12-27T08:06:34.301Z,2.37
2017-12-27T08:09:01.738Z,2.07
2017-12-27T08:11:29.204Z,1.97
2017-12-27T08:13:56.634Z,2.67
2017-12-27T08:16:24.106Z,2.50
2017-12-27T08:18:51.555Z,2.00
2017-12-27T08:21:19.019Z,2.17
2017-12-27T08:23:46.461Z,2.40
2017-12-27T08:26:13.960Z,2.53
2017-12-27T08:28:41.428Z,2.40
2017-12-27T08:31:08.871Z,2.93
2017-12-27T08:33:36.330Z,2.80
2017-12-27T08:36:03.784Z,1.70
2017-12-27T08:38:31.240Z,2.30
2017-12-27T08:40:58.684Z,1.77
2017-12-27T08:43:26.153Z,2.20
2017-12-27T08:45:53.595Z,2.70
2017-12-27T08:48:21.183Z,2.60
2017-12-27T08:50:48.627Z,2.60
2017-12-27T08:53:16.123Z,3.70
2017-12-27T08:55:43.567Z,2.77
2017-12-27T08:58:11.092Z,2.00
2017-12-27T09:00:38.539Z,2.47
2017-12-27T09:03:06.116Z,2.27
2017-12-27T09:05:33.703Z,3.00
2017-12-27T09:08:01.244Z,2.40
2017-12-27T09:10:28.687Z,2.23
2017-12-27T09:12:56.251Z,2.77
2017-12-27T09:15:23.691Z,2.47
2017-12-27T09:17:51.158Z,3.53
2017-12-27T09:20:18.595Z,2.97
2017-12-27T09:22:46.035Z,2.47
2017-12-27T09:25:13.503Z,2.37
2017-12-27T09:27:40.935Z,2.73
2017-12-27T09:30:08.395Z,2.97
2017-12-27T09:32:35.855Z,2.90
2017-12-27T09:35:03.327Z,2.57
2017-12-27T09:37:30.763Z,2.57
2017-12-27T09:39:58.228Z,3.20
2017-12-27T09:42:25.718Z,2.03
2017-12-27T09:44:53.174Z,2.10
2017-12-27T09:47:20.621Z,2.93
2017-12-27T09:49:48.124Z,3.97
2017-12-27T09:52:15.761Z,3.20
2017-12-27T09:54:43.262Z,6.77
2017-12-27T09:57:10.702Z,3.30
2017-12-27T09:59:38.175Z,2.67
2017-12-27T10:02:05.641Z,2.90
2017-12-27T10:04:33.087Z,4.10
2017-12-27T10:07:00.607Z,2.53
2017-12-27T10:09:28.056Z,3.10
2017-12-27T10:11:55.520Z,2.00
2017-12-27T10:14:22.963Z,2.17
2017-12-27T10:16:50.431Z,4.00
2017-12-27T10:19:17.863Z,1.80
2017-12-27T10:21:45.345Z,1.93
2017-12-27T10:24:12.807Z,1.40
2017-12-27T10:26:40.276Z,1.50
2017-12-27T10:29:07.805Z,1.10
2017-12-27T10:31:35.280Z,1.73
2017-12-27T10:34:02.760Z,2.30
2017-12-27T10:36:30.211Z,2.43
2017-12-27T10:38:57.742Z,1.43
2017-12-27T10:41:25.229Z,2.70
2017-12-27T10:43:52.961Z,2.30
2017-12-27T10:46:20.431Z,1.60
2017-12-27T10:48:47.916Z,1.50
2017-12-27T10:51:15.363Z,3.37
2017-12-27T10:53:42.855Z,2.17
2017-12-27T10:56:10.305Z,1.10
2017-12-27T10:58:37.773Z,1.27
2017-12-27T11:01:05.210Z,2.13
2017-12-27T11:03:32.708Z,1.37
2017-12-27T11:06:00.487Z,1.03
2017-12-27T11:08:27.941Z,1.30
2017-12-27T11:10:55.403Z,1.40
2017-12-27T11:13:22.975Z,1.20
2017-12-27T11:15:50.472Z,1.30
2017-12-27T11:18:17.914Z,0.73
2017-12-27T11:20:45.376Z,1.00
2017-12-27T11:23:12.833Z,0.83
2017-12-27T11:25:40.313Z,1.10
2017-12-27T11:28:07.772Z,1.67
2017-12-27T11:30:35.240Z,1.17
2017-12-27T11:33:02.675Z,1.07
2017-12-27T11:35:30.158Z,1.90
2017-12-27T11:37:57.636Z,1.20
2017-12-27T11:40:25.127Z,2.67
2017-12-27T11:42:52.650Z,1.20
2017-12-27T11:45:20.239Z,2.40
2017-12-27T11:47:47.780Z,1.30
2017-12-27T11:50:15.266Z,1.20
2017-12-27T11:52:42.852Z,1.20
2017-12-27T11:55:10.302Z,0.80
2017-12-27T11:57:37.814Z,1.40
2017-12-27T12:00:05.295Z,1.00
2017-12-27T12:02:32.779Z,0.80
2017-12-27T12:05:00.259Z,0.63
2017-12-27T12:07:27.719Z,1.17
2017-12-27T12:09:55.316Z,0.70
2017-12-27T12:12:22.780Z,0.50
2017-12-27T12:14:50.255Z,0.50
2017-12-27T12:17:17.718Z,0.50
2017-12-27T12:19:45.164Z,0.70
2017-12-27T12:22:12.652Z,0.80
2017-12-27T12:24:40.119Z,0.70
2017-12-27T12:27:07.554Z,0.60
2017-12-27T12:29:35.039Z,3.77
2017-12-27T12:32:02.502Z,4.93
2017-12-27T12:34:29.978Z,1.17
2017-12-27T12:36:57.448Z,0.87
2017-12-27T12:39:24.923Z,0.70
2017-12-27T12:41:52.363Z,0.87
2017-12-27T12:44:19.846Z,0.60
2017-12-27T12:46:47.366Z,1.97
2017-12-27T12:49:14.899Z,0.90
2017-12-27T12:51:42.456Z,1.20
2017-12-27T12:54:09.955Z,1.50
2017-12-27T12:56:37.446Z,1.50
2017-12-27T12:59:04.891Z,1.10
2017-12-27T13:01:32.490Z,0.80
2017-12-27T13:03:59.932Z,0.80
2017-12-27T13:06:27.404Z,1.10
2017-12-27T13:08:54.851Z,0.93
2017-12-27T13:11:22.315Z,1.00
2017-12-27T13:13:49.760Z,1.57
2017-12-27T13:16:17.262Z,0.70
2017-12-27T13:18:44.709Z,0.77
2017-12-27T13:21:12.175Z,0.60
2017-12-27T13:23:39.624Z,0.80
2017-12-27T13:26:07.113Z,1.00
2017-12-27T13:28:34.651Z,1.20
2017-12-27T13:31:02.142Z,1.10
2017-12-27T13:33:29.708Z,1.03
2017-12-27T13:35:57.149Z,0.77
2017-12-27T13:38:24.611Z,1.00
2017-12-27T13:40:52.123Z,0.80
2017-12-27T13:43:19.599Z,1.60
2017-12-27T13:45:47.039Z,1.40
2017-12-27T13:48:14.538Z,4.33
2017-12-27T13:50:42.030Z,1.27
2017-12-27T13:53:09.558Z,1.27
2017-12-27T13:55:36.990Z,1.40
2017-12-27T13:58:04.472Z,1.17
2017-12-27T14:00:31.954Z,0.40
2017-12-27T14:02:59.488Z,0.70
2017-12-27T14:05:27.060Z,0.87
2017-12-27T14:07:54.615Z,0.97
2017-12-27T14:10:22.078Z,0.60
2017-12-27T14:12:49.530Z,0.40
2017-12-27T14:15:17.025Z,1.17
2017-12-27T14:17:44.471Z,0.63
2017-12-27T14:20:11.937Z,0.77
2017-12-27T14:22:39.391Z,1.27
2017-12-27T14:25:06.880Z,0.87
2017-12-27T14:27:34.359Z,0.80
2017-12-27T14:30:01.800Z,1.23
2017-12-27T14:32:29.279Z,0.87
2017-12-27T14:34:56.739Z,0.80
2017-12-27T14:37:24.211Z,1.07
2017-12-27T14:39:51.690Z,1.30
2017-12-27T14:42:19.162Z,1.73
2017-12-27T14:44:46.636Z,0.90
2017-12-27T14:47:14.102Z,0.83
2017-12-27T14:49:41.571Z,1.10
2017-12-27T14:52:09.043Z,0.73
2017-12-27T14:54:36.480Z,1.37
2017-12-27T14:57:03.952Z,1.33
2017-12-27T14:59:31.398Z,1.50
2017-12-27T15:01:58.842Z,1.40
2017-12-27T15:04:26.307Z,2.60
2017-12-27T15:06:53.751Z,4.20
2017-12-27T15:09:21.255Z,2.70
2017-12-27T15:11:48.788Z,1.27
2017-12-27T15:14:16.271Z,3.40
2017-12-27T15:16:43.751Z,3.57
2017-12-27T15:19:11.311Z,4.40
2017-12-27T15:21:38.770Z,3.40
2017-12-27T15:24:06.239Z,3.10
2017-12-27T15:26:33.682Z,3.37
2017-12-27T15:29:01.177Z,2.57
2017-12-27T15:31:28.647Z,2.70
2017-12-27T15:33:56.101Z,1.40
2017-12-27T15:36:23.561Z,6.53
2017-12-27T15:38:51.015Z,5.00
2017-12-27T15:41:18.478Z,1.57
2017-12-27T15:43:45.919Z,1.70
2017-12-27T15:46:13.374Z,2.03
2017-12-27T15:48:40.815Z,0.93
2017-12-27T15:51:08.291Z,0.93
2017-12-27T15:53:35.731Z,1.20
2017-12-27T15:56:03.200Z,1.60
2017-12-27T15:58:30.658Z,2.27
2017-12-27T16:00:58.124Z,1.83
2017-12-27T16:03:25.623Z,1.70
2017-12-27T16:05:53.134Z,1.20
2017-12-27T16:08:20.622Z,0.73
2017-12-27T16:10:48.067Z,0.77
2017-12-27T16:13:15.526Z,0.60
2017-12-27T16:15:42.987Z,1.47
2017-12-27T16:18:10.474Z,1.00
2017-12-27T16:20:37.915Z,1.00
2017-12-27T16:23:05.429Z,1.97
2017-12-27T16:25:32.867Z,2.97
2017-12-27T16:28:00.315Z,3.63
2017-12-27T16:30:27.775Z,1.80
2017-12-27T16:32:55.218Z,1.77
2017-12-27T16:35:22.780Z,2.00
2017-12-27T16:37:50.230Z,2.50
2017-12-27T16:40:17.702Z,1.90
2017-12-27T16:42:45.176Z,1.50
2017-12-27T16:45:12.639Z,1.83
2017-12-27T16:47:40.083Z,2.47
2017-12-27T16:50:07.552Z,3.00
2017-12-27T16:52:35.006Z,3.57
2017-12-27T16:55:02.485Z,2.57
2017-12-27T16:57:30.016Z,3.53
2017-12-27T16:59:57.462Z,2.50
2017-12-27T17:02:24.935Z,2.80
2017-12-27T17:04:52.374Z,2.30
2017-12-27T17:07:19.830Z,3.10
2017-12-27T17:09:47.263Z,3.67
2017-12-27T17:12:14.736Z,6.50
2017-12-27T17:14:42.177Z,5.60
2017-12-27T17:17:09.646Z,6.17
2017-12-27T17:19:37.086Z,6.70
2017-12-27T17:22:04.555Z,9.80
2017-12-27T17:24:32.019Z,13.63
2017-12-27T17:26:59.483Z,16.10
2017-12-27T17:29:26.941Z,11.23
2017-12-27T17:31:54.423Z,8.90
2017-12-27T17:34:22.950Z,7.20
2017-12-27T17:36:50.396Z,6.63
2017-12-27T17:39:17.908Z,5.53
2017-12-27T17:41:45.359Z,5.87
2017-12-27T17:44:12.907Z,5.70
2017-12-27T17:46:40.664Z,5.10
2017-12-27T17:49:08.135Z,6.67
2017-12-27T17:51:35.579Z,8.33
2017-12-27T17:54:03.069Z,6.20
2017-12-27T17:56:30.513Z,6.73
2017-12-27T17:58:58.014Z,5.00
2017-12-27T18:01:25.487Z,3.77
2017-12-27T18:03:52.930Z,3.37
2017-12-27T18:06:20.390Z,3.97
2017-12-27T18:08:47.855Z,3.80
2017-12-27T18:11:15.324Z,3.83
2017-12-27T18:13:42.810Z,3.37
2017-12-27T18:16:10.323Z,4.17
2017-12-27T18:18:37.825Z,9.50
2017-12-27T18:21:05.291Z,10.30
2017-12-27T18:23:32.843Z,9.80
2017-12-27T18:26:00.322Z,8.60
2017-12-27T18:28:27.766Z,8.50
2017-12-27T18:30:55.266Z,6.13
2017-12-27T18:33:23.803Z,5.40
2017-12-27T18:35:51.262Z,4.90
2017-12-27T18:38:18.717Z,5.40
2017-12-27T18:40:46.191Z,4.50
2017-12-27T18:43:13.723Z,3.60
2017-12-27T18:45:41.196Z,5.00
2017-12-27T18:48:08.740Z,3.83
2017-12-27T18:50:36.234Z,3.80
2017-12-27T18:53:03.675Z,4.33
2017-12-27T18:55:31.110Z,4.50
2017-12-27T18:57:58.575Z,4.03
2017-12-27T19:00:26.020Z,3.10
2017-12-27T19:02:53.483Z,3.10
2017-12-27T19:05:20.940Z,9.10
2017-12-27T19:07:48.398Z,6.83
2017-12-27T19:10:15.840Z,3.60
2017-12-27T19:12:43.328Z,2.00
2017-12-27T19:15:10.791Z,2.00
2017-12-27T19:17:38.275Z,1.30
2017-12-27T19:20:05.724Z,2.10
2017-12-27T19:22:33.215Z,2.10
2017-12-27T19:25:00.679Z,2.10
2017-12-27T19:27:28.110Z,2.87
2017-12-27T19:29:55.598Z,1.93
2017-12-27T19:32:23.040Z,1.63
2017-12-27T19:34:50.606Z,1.57
2017-12-27T19:37:18.075Z,1.37
2017-12-27T19:39:45.683Z,1.87
2017-12-27T19:42:13.188Z,2.30
2017-12-27T19:44:40.644Z,1.23
2017-12-27T19:47:08.134Z,1.40
2017-12-27T19:49:35.627Z,1.40
2017-12-27T19:52:03.131Z,2.20
2017-12-27T19:54:30.599Z,1.20
2017-12-27T19:56:58.131Z,1.63
2017-12-27T19:59:25.691Z,2.17
2017-12-27T20:01:53.147Z,2.73
2017-12-27T20:04:20.606Z,3.37
2017-12-27T20:06:48.038Z,2.03
2017-12-27T20:09:15.675Z,1.53
2017-12-27T20:11:43.109Z,1.33
2017-12-27T20:14:10.544Z,1.70
2017-12-27T20:16:38.013Z,0.97
2017-12-27T20:19:05.472Z,1.80
2017-12-27T20:21:32.930Z,1.50
2017-12-27T20:24:00.455Z,1.90
2017-12-27T20:26:27.924Z,2.30
2017-12-27T20:28:55.392Z,4.77
2017-12-27T20:31:22.855Z,4.10
2017-12-27T20:33:50.311Z,3.90
2017-12-27T20:36:17.835Z,4.00
2017-12-27T20:38:45.284Z,4.17
2017-12-27T20:41:12.741Z,3.63
2017-12-27T20:43:40.188Z,3.60
2017-12-27T20:46:07.659Z,8.23
2017-12-27T20:48:35.111Z,4.90
2017-12-27T20:51:02.580Z,3.07
2017-12-27T20:53:30.047Z,3.07
2017-12-27T20:55:57.527Z,2.03
2017-12-27T20:58:24.971Z,1.40
2017-12-27T21:00:52.430Z,1.70
2017-12-27T21:03:19.899Z,1.27
2017-12-27T21:05:47.419Z,1.37
2017-12-27T21:08:14.884Z,1.50
2017-12-27T21:10:42.331Z,1.57
2017-12-27T21:13:09.789Z,1.80
2017-12-27T21:15:37.222Z,2.17
2017-12-27T21:18:04.705Z,2.20
2017-12-27T21:20:32.158Z,1.50
2017-12-27T21:22:59.619Z,2.20
2017-12-27T21:25:27.129Z,1.40
2017-12-27T21:27:54.597Z,1.60
2017-12-27T21:30:22.043Z,1.67
2017-12-27T21:32:49.528Z,1.30
2017-12-27T21:35:17.003Z,1.90
2017-12-27T21:37:44.490Z,1.00
2017-12-27T21:40:11.937Z,2.37
2017-12-27T21:42:39.403Z,2.00
2017-12-27T21:45:06.902Z,1.97
2017-12-27T21:47:39.941Z,1.60
2017-12-27T21:50:07.499Z,1.50
2017-12-27T21:52:34.959Z,1.70
2017-12-27T21:55:02.424Z,1.30
2017-12-27T21:57:29.893Z,1.40
2017-12-27T22:00:03.075Z,1.37
2017-12-27T22:02:30.594Z,1.20
2017-12-27T22:04:58.051Z,2.10
2017-12-27T22:07:25.507Z,1.60
2017-12-27T22:09:53.009Z,1.40
2017-12-27T22:12:20.463Z,2.13
2017-12-27T22:14:47.946Z,1.60
2017-12-27T22:17:15.558Z,2.43
2017-12-27T22:19:43.093Z,2.10
2017-12-27T22:22:10.539Z,2.67
2017-12-27T22:24:38.003Z,2.50
2017-12-27T22:27:05.451Z,1.70
2017-12-27T22:29:32.939Z,1.90
2017-12-27T22:32:00.487Z,1.30
2017-12-27T22:34:27.957Z,1.80
2017-12-27T22:36:55.398Z,1.50
2017-12-27T22:39:22.843Z,1.17
2017-12-27T22:41:50.412Z,1.63
2017-12-27T22:44:17.858Z,1.20
2017-12-27T22:46:45.322Z,1.77
2017-12-27T22:49:12.774Z,1.73
2017-12-27T22:51:40.342Z,1.77
2017-12-27T22:54:07.782Z,2.33
2017-12-27T22:56:35.239Z,2.30
2017-12-27T22:59:02.761Z,2.47
2017-12-27T23:01:30.385Z,2.70
2017-12-27T23:03:57.831Z,2.80
2017-12-27T23:06:25.294Z,2.50
2017-12-27T23:08:52.792Z,3.03
2017-12-27T23:11:20.264Z,3.53
2017-12-27T23:13:47.910Z,3.60
2017-12-27T23:16:15.426Z,3.10
2017-12-27T23:18:42.866Z,2.70
2017-12-27T23:21:10.328Z,2.70
2017-12-27T23:23:37.796Z,2.53
2017-12-27T23:26:05.248Z,2.83
2017-12-27T23:28:32.712Z,3.10
2017-12-27T23:31:00.165Z,2.87
2017-12-27T23:33:27.679Z,2.60
2017-12-27T23:35:55.176Z,3.57
2017-12-27T23:38:22.657Z,3.00
2017-12-27T23:40:50.109Z,3.47
2017-12-27T23:43:17.635Z,2.50
2017-12-27T23:45:45.074Z,2.43
2017-12-27T23:48:12.593Z,2.93
2017-12-27T23:50:40.043Z,1.80
2017-12-27T23:53:07.506Z,2.33
2017-12-27T23:55:34.947Z,1.70
2017-12-27T23:58:02.407Z,1.33
